sensor_id;sensor_type;location;lat;lon;timestamp;P1;durP1;ratioP1;P2;durP2;ratioP2
286;SDS011;127;48.770;9.212;2022-12-18T00:00:10;111.20;;;34.45;;
286;SDS011;127;48.770;9.212;2022-12-18T00:02:39;86.88;;;31.45;;
286;SDS011;127;48.770;9.212;2022-12-18T00:05:08;113.93;;;37.13;;
286;SDS011;127;48.770;9.212;2022-12-18T00:07:37;123.53;;;35.67;;
286;SDS011;127;48.770;9.212;2022-12-18T00:10:06;105.25;;;33.83;;
286;SDS011;127;48.770;9.212;2022-12-18T00:12:35;116.80;;;37.20;;
286;SDS011;127;48.770;9.212;2022-12-18T00:15:04;121.95;;;36.97;;
286;SDS011;127;48.770;9.212;2022-12-18T00:17:36;110.88;;;34.90;;
286;SDS011;127;48.770;9.212;2022-12-18T00:20:05;115.90;;;38.03;;
286;SDS011;127;48.770;9.212;2022-12-18T00:22:34;107.88;;;36.47;;
286;SDS011;127;48.770;9.212;2022-12-18T00:25:03;101.40;;;33.58;;
286;SDS011;127;48.770;9.212;2022-12-18T00:27:32;113.07;;;37.17;;
286;SDS011;127;48.770;9.212;2022-12-18T00:30:00;118.68;;;37.08;;
286;SDS011;127;48.770;9.212;2022-12-18T00:32:29;139.50;;;37.28;;
286;SDS011;127;48.770;9.212;2022-12-18T00:35:00;111.82;;;36.97;;
286;SDS011;127;48.770;9.212;2022-12-18T00:37:29;103.40;;;32.90;;
286;SDS011;127;48.770;9.212;2022-12-18T00:39:58;113.15;;;36.70;;
286;SDS011;127;48.770;9.212;2022-12-18T00:42:26;102.18;;;34.08;;
286;SDS011;127;48.770;9.212;2022-12-18T00:45:07;111.50;;;35.97;;
286;SDS011;127;48.770;9.212;2022-12-18T00:47:36;110.05;;;33.08;;
286;SDS011;127;48.770;9.212;2022-12-18T00:50:08;119.63;;;34.30;;
286;SDS011;127;48.770;9.212;2022-12-18T00:52:40;120.32;;;36.55;;
286;SDS011;127;48.770;9.212;2022-12-18T00:55:09;97.95;;;32.20;;
286;SDS011;127;48.770;9.212;2022-12-18T00:57:38;105.60;;;34.20;;
286;SDS011;127;48.770;9.212;2022-12-18T01:00:08;106.13;;;33.20;;
286;SDS011;127;48.770;9.212;2022-12-18T01:02:40;93.25;;;30.58;;
286;SDS011;127;48.770;9.212;2022-12-18T01:05:12;109.50;;;34.55;;
286;SDS011;127;48.770;9.212;2022-12-18T01:07:41;101.55;;;30.00;;
286;SDS011;127;48.770;9.212;2022-12-18T01:10:10;94.70;;;32.28;;
286;SDS011;127;48.770;9.212;2022-12-18T01:12:39;103.93;;;32.30;;
286;SDS011;127;48.770;9.212;2022-12-18T01:15:09;106.35;;;32.67;;
286;SDS011;127;48.770;9.212;2022-12-18T01:17:39;119.10;;;34.83;;
286;SDS011;127;48.770;9.212;2022-12-18T01:20:09;118.57;;;38.00;;
286;SDS011;127;48.770;9.212;2022-12-18T01:22:40;116.15;;;31.73;;
286;SDS011;127;48.770;9.212;2022-12-18T01:25:09;101.18;;;31.65;;
286;SDS011;127;48.770;9.212;2022-12-18T01:27:38;97.82;;;32.05;;
286;SDS011;127;48.770;9.212;2022-12-18T01:30:07;114.90;;;30.50;;
286;SDS011;127;48.770;9.212;2022-12-18T01:32:36;90.55;;;31.52;;
286;SDS011;127;48.770;9.212;2022-12-18T01:35:06;104.00;;;30.73;;
286;SDS011;127;48.770;9.212;2022-12-18T01:37:38;104.35;;;29.88;;
286;SDS011;127;48.770;9.212;2022-12-18T01:40:07;103.57;;;32.17;;
286;SDS011;127;48.770;9.212;2022-12-18T01:42:36;115.97;;;34.47;;
286;SDS011;127;48.770;9.212;2022-12-18T01:45:08;108.65;;;33.45;;
286;SDS011;127;48.770;9.212;2022-12-18T01:47:52;122.38;;;34.38;;
286;SDS011;127;48.770;9.212;2022-12-18T01:50:23;101.20;;;32.58;;
286;SDS011;127;48.770;9.212;2022-12-18T01:52:59;96.97;;;30.83;;
286;SDS011;127;48.770;9.212;2022-12-18T01:55:31;98.60;;;32.70;;
286;SDS011;127;48.770;9.212;2022-12-18T01:58:04;102.60;;;33.83;;
286;SDS011;127;48.770;9.212;2022-12-18T02:00:33;106.70;;;34.28;;
286;SDS011;127;48.770;9.212;2022-12-18T02:03:02;94.22;;;30.60;;
286;SDS011;127;48.770;9.212;2022-12-18T02:05:36;91.72;;;30.15;;
286;SDS011;127;48.770;9.212;2022-12-18T02:08:16;106.00;;;32.92;;
286;SDS011;127;48.770;9.212;2022-12-18T02:10:52;108.20;;;34.30;;
286;SDS011;127;48.770;9.212;2022-12-18T02:13:30;100.35;;;32.42;;
286;SDS011;127;48.770;9.212;2022-12-18T02:16:06;117.95;;;33.40;;
286;SDS011;127;48.770;9.212;2022-12-18T02:18:43;103.97;;;31.13;;
286;SDS011;127;48.770;9.212;2022-12-18T02:21:20;107.75;;;32.35;;
286;SDS011;127;48.770;9.212;2022-12-18T02:24:01;81.20;;;28.58;;
286;SDS011;127;48.770;9.212;2022-12-18T02:26:44;88.93;;;30.15;;
286;SDS011;127;48.770;9.212;2022-12-18T02:29:18;94.22;;;30.52;;
286;SDS011;127;48.770;9.212;2022-12-18T02:31:52;101.72;;;32.20;;
286;SDS011;127;48.770;9.212;2022-12-18T02:34:25;99.68;;;30.15;;
286;SDS011;127;48.770;9.212;2022-12-18T02:36:57;88.53;;;29.83;;
286;SDS011;127;48.770;9.212;2022-12-18T02:39:29;92.95;;;29.08;;
286;SDS011;127;48.770;9.212;2022-12-18T02:42:01;87.15;;;28.88;;
286;SDS011;127;48.770;9.212;2022-12-18T02:44:32;83.60;;;28.13;;
286;SDS011;127;48.770;9.212;2022-12-18T02:47:01;87.78;;;29.25;;
286;SDS011;127;48.770;9.212;2022-12-18T02:49:31;86.03;;;26.50;;
286;SDS011;127;48.770;9.212;2022-12-18T02:52:08;100.93;;;28.58;;
286;SDS011;127;48.770;9.212;2022-12-18T02:54:49;84.93;;;26.98;;
286;SDS011;127;48.770;9.212;2022-12-18T02:57:29;84.88;;;26.50;;
286;SDS011;127;48.770;9.212;2022-12-18T03:00:03;76.35;;;24.20;;
286;SDS011;127;48.770;9.212;2022-12-18T03:02:37;81.55;;;27.45;;
286;SDS011;127;48.770;9.212;2022-12-18T03:05:12;77.28;;;26.15;;
286;SDS011;127;48.770;9.212;2022-12-18T03:07:44;86.80;;;27.80;;
286;SDS011;127;48.770;9.212;2022-12-18T03:10:18;75.45;;;26.30;;
286;SDS011;127;48.770;9.212;2022-12-18T03:12:54;89.97;;;26.10;;
286;SDS011;127;48.770;9.212;2022-12-18T03:15:29;70.40;;;23.85;;
286;SDS011;127;48.770;9.212;2022-12-18T03:18:03;76.63;;;24.50;;
286;SDS011;127;48.770;9.212;2022-12-18T03:20:36;81.28;;;25.83;;
286;SDS011;127;48.770;9.212;2022-12-18T03:23:09;82.15;;;25.90;;
286;SDS011;127;48.770;9.212;2022-12-18T03:25:40;85.80;;;28.73;;
286;SDS011;127;48.770;9.212;2022-12-18T03:28:15;79.88;;;27.88;;
286;SDS011;127;48.770;9.212;2022-12-18T03:30:47;75.50;;;25.38;;
286;SDS011;127;48.770;9.212;2022-12-18T03:33:24;79.45;;;26.42;;
286;SDS011;127;48.770;9.212;2022-12-18T03:35:56;82.03;;;25.65;;
286;SDS011;127;48.770;9.212;2022-12-18T03:38:24;81.28;;;26.75;;
286;SDS011;127;48.770;9.212;2022-12-18T03:40:56;86.00;;;28.35;;
286;SDS011;127;48.770;9.212;2022-12-18T03:43:36;79.22;;;26.48;;
286;SDS011;127;48.770;9.212;2022-12-18T03:46:12;80.20;;;27.85;;
286;SDS011;127;48.770;9.212;2022-12-18T03:48:46;84.15;;;25.33;;
286;SDS011;127;48.770;9.212;2022-12-18T03:51:22;91.03;;;28.80;;
286;SDS011;127;48.770;9.212;2022-12-18T03:53:55;105.10;;;29.98;;
286;SDS011;127;48.770;9.212;2022-12-18T03:56:28;61.53;;;23.42;;
286;SDS011;127;48.770;9.212;2022-12-18T03:59:02;66.90;;;23.35;;
286;SDS011;127;48.770;9.212;2022-12-18T04:01:34;76.68;;;26.02;;
286;SDS011;127;48.770;9.212;2022-12-18T04:04:06;71.93;;;26.48;;
286;SDS011;127;48.770;9.212;2022-12-18T04:06:38;73.70;;;24.45;;
286;SDS011;127;48.770;9.212;2022-12-18T04:09:08;82.32;;;25.98;;
286;SDS011;127;48.770;9.212;2022-12-18T04:11:37;70.97;;;23.70;;
286;SDS011;127;48.770;9.212;2022-12-18T04:14:11;63.55;;;24.45;;
286;SDS011;127;48.770;9.212;2022-12-18T04:16:40;71.35;;;24.02;;
286;SDS011;127;48.770;9.212;2022-12-18T04:19:09;77.40;;;23.88;;
286;SDS011;127;48.770;9.212;2022-12-18T04:21:37;63.55;;;24.48;;
286;SDS011;127;48.770;9.212;2022-12-18T04:24:06;73.20;;;25.35;;
286;SDS011;127;48.770;9.212;2022-12-18T04:26:35;67.63;;;25.80;;
286;SDS011;127;48.770;9.212;2022-12-18T04:29:03;75.28;;;25.25;;
286;SDS011;127;48.770;9.212;2022-12-18T04:31:35;81.78;;;26.17;;
286;SDS011;127;48.770;9.212;2022-12-18T04:34:03;78.13;;;24.60;;
286;SDS011;127;48.770;9.212;2022-12-18T04:36:32;77.40;;;22.85;;
286;SDS011;127;48.770;9.212;2022-12-18T04:39:00;77.50;;;24.25;;
286;SDS011;127;48.770;9.212;2022-12-18T04:41:29;68.68;;;22.63;;
286;SDS011;127;48.770;9.212;2022-12-18T04:43:57;81.20;;;26.70;;
286;SDS011;127;48.770;9.212;2022-12-18T04:46:26;75.22;;;24.02;;
286;SDS011;127;48.770;9.212;2022-12-18T04:48:57;66.18;;;23.80;;
286;SDS011;127;48.770;9.212;2022-12-18T04:51:26;73.78;;;24.20;;
286;SDS011;127;48.770;9.212;2022-12-18T04:53:54;76.32;;;26.17;;
286;SDS011;127;48.770;9.212;2022-12-18T04:56:23;64.45;;;22.77;;
286;SDS011;127;48.770;9.212;2022-12-18T04:58:52;86.13;;;27.00;;
286;SDS011;127;48.770;9.212;2022-12-18T05:01:20;68.55;;;22.95;;
286;SDS011;127;48.770;9.212;2022-12-18T05:03:50;74.05;;;24.88;;
286;SDS011;127;48.770;9.212;2022-12-18T05:06:22;66.18;;;22.85;;
286;SDS011;127;48.770;9.212;2022-12-18T05:08:50;80.13;;;26.05;;
286;SDS011;127;48.770;9.212;2022-12-18T05:11:19;75.38;;;24.77;;
286;SDS011;127;48.770;9.212;2022-12-18T05:13:48;70.15;;;25.30;;
286;SDS011;127;48.770;9.212;2022-12-18T05:16:17;82.50;;;25.35;;
286;SDS011;127;48.770;9.212;2022-12-18T05:18:46;95.75;;;25.23;;
286;SDS011;127;48.770;9.212;2022-12-18T05:21:14;65.97;;;22.17;;
286;SDS011;127;48.770;9.212;2022-12-18T05:23:45;78.70;;;23.15;;
286;SDS011;127;48.770;9.212;2022-12-18T05:26:15;68.28;;;24.55;;
286;SDS011;127;48.770;9.212;2022-12-18T05:28:45;77.78;;;24.48;;
286;SDS011;127;48.770;9.212;2022-12-18T05:31:14;86.68;;;26.90;;
286;SDS011;127;48.770;9.212;2022-12-18T05:33:42;76.35;;;26.20;;
286;SDS011;127;48.770;9.212;2022-12-18T05:36:11;78.13;;;25.15;;
286;SDS011;127;48.770;9.212;2022-12-18T05:38:40;76.45;;;24.02;;
286;SDS011;127;48.770;9.212;2022-12-18T05:41:11;77.72;;;25.20;;
286;SDS011;127;48.770;9.212;2022-12-18T05:43:40;65.65;;;23.55;;
286;SDS011;127;48.770;9.212;2022-12-18T05:46:11;65.22;;;26.65;;
286;SDS011;127;48.770;9.212;2022-12-18T05:48:42;62.40;;;24.25;;
286;SDS011;127;48.770;9.212;2022-12-18T05:51:14;78.45;;;25.50;;
286;SDS011;127;48.770;9.212;2022-12-18T05:53:43;85.55;;;29.20;;
286;SDS011;127;48.770;9.212;2022-12-18T05:56:17;61.30;;;22.83;;
286;SDS011;127;48.770;9.212;2022-12-18T05:58:47;67.85;;;20.92;;
286;SDS011;127;48.770;9.212;2022-12-18T06:01:20;72.75;;;25.80;;
286;SDS011;127;48.770;9.212;2022-12-18T06:03:51;76.32;;;25.98;;
286;SDS011;127;48.770;9.212;2022-12-18T06:06:20;89.30;;;27.77;;
286;SDS011;127;48.770;9.212;2022-12-18T06:08:51;75.55;;;23.50;;
286;SDS011;127;48.770;9.212;2022-12-18T06:11:23;71.93;;;24.98;;
286;SDS011;127;48.770;9.212;2022-12-18T06:13:55;62.17;;;22.45;;
286;SDS011;127;48.770;9.212;2022-12-18T06:16:24;63.33;;;22.58;;
286;SDS011;127;48.770;9.212;2022-12-18T06:18:53;72.18;;;24.17;;
286;SDS011;127;48.770;9.212;2022-12-18T06:21:23;55.05;;;21.77;;
286;SDS011;127;48.770;9.212;2022-12-18T06:23:52;72.25;;;21.05;;
286;SDS011;127;48.770;9.212;2022-12-18T06:26:23;76.40;;;22.60;;
286;SDS011;127;48.770;9.212;2022-12-18T06:28:52;55.55;;;22.20;;
286;SDS011;127;48.770;9.212;2022-12-18T06:31:20;62.80;;;22.55;;
286;SDS011;127;48.770;9.212;2022-12-18T06:33:49;66.13;;;21.98;;
286;SDS011;127;48.770;9.212;2022-12-18T06:36:18;66.35;;;24.15;;
286;SDS011;127;48.770;9.212;2022-12-18T06:38:46;56.63;;;21.92;;
286;SDS011;127;48.770;9.212;2022-12-18T06:41:16;55.13;;;21.13;;
286;SDS011;127;48.770;9.212;2022-12-18T06:43:48;61.97;;;22.00;;
286;SDS011;127;48.770;9.212;2022-12-18T06:46:17;67.10;;;21.50;;
286;SDS011;127;48.770;9.212;2022-12-18T06:48:49;62.03;;;21.83;;
286;SDS011;127;48.770;9.212;2022-12-18T06:51:18;72.60;;;22.95;;
286;SDS011;127;48.770;9.212;2022-12-18T06:53:48;68.60;;;23.40;;
286;SDS011;127;48.770;9.212;2022-12-18T06:56:16;71.50;;;20.45;;
286;SDS011;127;48.770;9.212;2022-12-18T06:58:45;62.55;;;22.70;;
286;SDS011;127;48.770;9.212;2022-12-18T07:01:16;66.18;;;24.17;;
286;SDS011;127;48.770;9.212;2022-12-18T07:03:45;70.25;;;21.92;;
286;SDS011;127;48.770;9.212;2022-12-18T07:06:14;59.30;;;21.52;;
286;SDS011;127;48.770;9.212;2022-12-18T07:08:44;67.65;;;21.95;;
286;SDS011;127;48.770;9.212;2022-12-18T07:11:14;58.65;;;22.38;;
286;SDS011;127;48.770;9.212;2022-12-18T07:13:44;68.40;;;22.48;;
286;SDS011;127;48.770;9.212;2022-12-18T07:16:14;64.47;;;22.08;;
286;SDS011;127;48.770;9.212;2022-12-18T07:18:47;58.38;;;20.92;;
286;SDS011;127;48.770;9.212;2022-12-18T07:21:19;70.05;;;22.27;;
286;SDS011;127;48.770;9.212;2022-12-18T07:23:48;61.88;;;21.90;;
286;SDS011;127;48.770;9.212;2022-12-18T07:26:17;68.05;;;22.73;;
286;SDS011;127;48.770;9.212;2022-12-18T07:28:47;65.10;;;21.88;;
286;SDS011;127;48.770;9.212;2022-12-18T07:31:19;62.63;;;21.88;;
286;SDS011;127;48.770;9.212;2022-12-18T07:33:49;55.30;;;20.02;;
286;SDS011;127;48.770;9.212;2022-12-18T07:36:18;67.38;;;22.33;;
286;SDS011;127;48.770;9.212;2022-12-18T07:38:48;61.17;;;21.27;;
286;SDS011;127;48.770;9.212;2022-12-18T07:41:17;81.30;;;23.88;;
286;SDS011;127;48.770;9.212;2022-12-18T07:43:46;59.25;;;21.02;;
286;SDS011;127;48.770;9.212;2022-12-18T07:46:15;49.67;;;19.95;;
286;SDS011;127;48.770;9.212;2022-12-18T07:48:47;53.45;;;19.17;;
286;SDS011;127;48.770;9.212;2022-12-18T07:51:16;56.15;;;19.70;;
286;SDS011;127;48.770;9.212;2022-12-18T07:53:45;72.50;;;24.45;;
286;SDS011;127;48.770;9.212;2022-12-18T07:56:14;69.18;;;22.17;;
286;SDS011;127;48.770;9.212;2022-12-18T07:58:42;72.72;;;21.00;;
286;SDS011;127;48.770;9.212;2022-12-18T08:01:12;62.80;;;20.98;;
286;SDS011;127;48.770;9.212;2022-12-18T08:03:43;43.65;;;19.48;;
286;SDS011;127;48.770;9.212;2022-12-18T08:06:12;61.72;;;21.35;;
286;SDS011;127;48.770;9.212;2022-12-18T08:08:40;51.40;;;19.10;;
286;SDS011;127;48.770;9.212;2022-12-18T08:11:09;81.72;;;26.35;;
286;SDS011;127;48.770;9.212;2022-12-18T08:13:38;69.03;;;25.65;;
286;SDS011;127;48.770;9.212;2022-12-18T08:16:07;73.30;;;24.25;;
286;SDS011;127;48.770;9.212;2022-12-18T08:18:36;60.28;;;22.70;;
286;SDS011;127;48.770;9.212;2022-12-18T08:21:11;63.05;;;21.70;;
286;SDS011;127;48.770;9.212;2022-12-18T08:23:41;68.25;;;22.67;;
286;SDS011;127;48.770;9.212;2022-12-18T08:26:11;66.18;;;21.90;;
286;SDS011;127;48.770;9.212;2022-12-18T08:28:40;70.43;;;22.85;;
286;SDS011;127;48.770;9.212;2022-12-18T08:31:09;68.80;;;25.58;;
286;SDS011;127;48.770;9.212;2022-12-18T08:33:38;67.55;;;24.80;;
286;SDS011;127;48.770;9.212;2022-12-18T08:36:08;63.13;;;20.25;;
286;SDS011;127;48.770;9.212;2022-12-18T08:38:39;76.47;;;23.23;;
286;SDS011;127;48.770;9.212;2022-12-18T08:41:09;73.53;;;23.60;;
286;SDS011;127;48.770;9.212;2022-12-18T08:43:39;75.47;;;26.05;;
286;SDS011;127;48.770;9.212;2022-12-18T08:46:21;66.72;;;23.08;;
286;SDS011;127;48.770;9.212;2022-12-18T08:48:50;79.47;;;26.00;;
286;SDS011;127;48.770;9.212;2022-12-18T08:51:22;75.13;;;25.75;;
286;SDS011;127;48.770;9.212;2022-12-18T08:53:51;72.15;;;24.17;;
286;SDS011;127;48.770;9.212;2022-12-18T08:56:19;68.40;;;23.77;;
286;SDS011;127;48.770;9.212;2022-12-18T08:58:50;69.40;;;24.90;;
286;SDS011;127;48.770;9.212;2022-12-18T09:01:20;70.15;;;23.48;;
286;SDS011;127;48.770;9.212;2022-12-18T09:03:49;62.38;;;21.83;;
286;SDS011;127;48.770;9.212;2022-12-18T09:06:19;74.60;;;22.75;;
286;SDS011;127;48.770;9.212;2022-12-18T09:08:51;64.45;;;23.85;;
286;SDS011;127;48.770;9.212;2022-12-18T09:11:21;75.68;;;23.48;;
286;SDS011;127;48.770;9.212;2022-12-18T09:13:51;76.88;;;25.33;;
286;SDS011;127;48.770;9.212;2022-12-18T09:16:20;66.95;;;23.83;;
286;SDS011;127;48.770;9.212;2022-12-18T09:18:50;81.22;;;25.65;;
286;SDS011;127;48.770;9.212;2022-12-18T09:21:27;65.57;;;21.88;;
286;SDS011;127;48.770;9.212;2022-12-18T09:23:57;75.75;;;24.83;;
286;SDS011;127;48.770;9.212;2022-12-18T09:26:26;66.10;;;22.70;;
286;SDS011;127;48.770;9.212;2022-12-18T09:28:55;68.25;;;23.35;;
286;SDS011;127;48.770;9.212;2022-12-18T09:31:24;72.32;;;23.92;;
286;SDS011;127;48.770;9.212;2022-12-18T09:33:54;65.47;;;23.45;;
286;SDS011;127;48.770;9.212;2022-12-18T09:36:23;66.95;;;22.25;;
286;SDS011;127;48.770;9.212;2022-12-18T09:38:54;66.80;;;22.85;;
286;SDS011;127;48.770;9.212;2022-12-18T09:41:32;70.97;;;22.80;;
286;SDS011;127;48.770;9.212;2022-12-18T09:44:10;70.13;;;23.23;;
286;SDS011;127;48.770;9.212;2022-12-18T09:46:45;71.43;;;24.98;;
286;SDS011;127;48.770;9.212;2022-12-18T09:49:18;58.67;;;22.40;;
286;SDS011;127;48.770;9.212;2022-12-18T09:51:52;72.25;;;25.15;;
286;SDS011;127;48.770;9.212;2022-12-18T09:54:30;75.20;;;27.30;;
286;SDS011;127;48.770;9.212;2022-12-18T09:57:02;69.68;;;25.48;;
286;SDS011;127;48.770;9.212;2022-12-18T09:59:34;60.13;;;22.40;;
286;SDS011;127;48.770;9.212;2022-12-18T10:02:12;62.05;;;22.73;;
286;SDS011;127;48.770;9.212;2022-12-18T10:04:42;50.70;;;19.70;;
286;SDS011;127;48.770;9.212;2022-12-18T10:07:17;55.20;;;20.10;;
286;SDS011;127;48.770;9.212;2022-12-18T10:09:56;60.78;;;21.17;;
286;SDS011;127;48.770;9.212;2022-12-18T10:12:34;57.85;;;19.35;;
286;SDS011;127;48.770;9.212;2022-12-18T10:15:13;58.75;;;22.80;;
286;SDS011;127;48.770;9.212;2022-12-18T10:17:50;71.85;;;24.02;;
286;SDS011;127;48.770;9.212;2022-12-18T10:20:27;66.03;;;22.67;;
286;SDS011;127;48.770;9.212;2022-12-18T10:23:03;67.25;;;23.48;;
286;SDS011;127;48.770;9.212;2022-12-18T10:25:45;64.75;;;21.13;;
286;SDS011;127;48.770;9.212;2022-12-18T10:28:21;50.47;;;20.17;;
286;SDS011;127;48.770;9.212;2022-12-18T10:30:51;47.47;;;19.33;;
286;SDS011;127;48.770;9.212;2022-12-18T10:33:20;59.58;;;21.90;;
286;SDS011;127;48.770;9.212;2022-12-18T10:35:51;51.30;;;19.83;;
286;SDS011;127;48.770;9.212;2022-12-18T10:38:22;52.17;;;19.55;;
286;SDS011;127;48.770;9.212;2022-12-18T10:40:55;45.38;;;18.10;;
286;SDS011;127;48.770;9.212;2022-12-18T10:43:26;54.00;;;20.65;;
286;SDS011;127;48.770;9.212;2022-12-18T10:46:01;64.65;;;21.65;;
286;SDS011;127;48.770;9.212;2022-12-18T10:48:33;53.53;;;20.05;;
286;SDS011;127;48.770;9.212;2022-12-18T10:51:07;53.45;;;21.10;;
286;SDS011;127;48.770;9.212;2022-12-18T10:53:36;59.10;;;22.08;;
286;SDS011;127;48.770;9.212;2022-12-18T10:56:08;69.90;;;24.65;;
286;SDS011;127;48.770;9.212;2022-12-18T10:58:37;54.15;;;21.13;;
286;SDS011;127;48.770;9.212;2022-12-18T11:01:08;47.25;;;20.25;;
286;SDS011;127;48.770;9.212;2022-12-18T11:03:40;60.03;;;20.67;;
286;SDS011;127;48.770;9.212;2022-12-18T11:06:10;51.55;;;20.55;;
286;SDS011;127;48.770;9.212;2022-12-18T11:08:40;53.63;;;20.35;;
286;SDS011;127;48.770;9.212;2022-12-18T11:11:19;52.70;;;21.75;;
286;SDS011;127;48.770;9.212;2022-12-18T11:13:51;57.38;;;21.77;;
286;SDS011;127;48.770;9.212;2022-12-18T11:16:27;51.88;;;22.10;;
286;SDS011;127;48.770;9.212;2022-12-18T11:19:07;49.15;;;20.33;;
286;SDS011;127;48.770;9.212;2022-12-18T11:21:41;48.75;;;18.98;;
286;SDS011;127;48.770;9.212;2022-12-18T11:24:15;48.03;;;19.67;;
286;SDS011;127;48.770;9.212;2022-12-18T11:26:52;46.35;;;18.77;;
286;SDS011;127;48.770;9.212;2022-12-18T11:29:23;41.05;;;18.50;;
286;SDS011;127;48.770;9.212;2022-12-18T11:32:09;45.80;;;19.10;;
286;SDS011;127;48.770;9.212;2022-12-18T11:34:51;42.50;;;20.07;;
286;SDS011;127;48.770;9.212;2022-12-18T11:37:25;53.13;;;20.83;;
286;SDS011;127;48.770;9.212;2022-12-18T11:39:56;48.30;;;20.47;;
286;SDS011;127;48.770;9.212;2022-12-18T11:42:32;49.70;;;20.87;;
286;SDS011;127;48.770;9.212;2022-12-18T11:45:14;52.30;;;20.13;;
286;SDS011;127;48.770;9.212;2022-12-18T11:47:54;47.97;;;18.50;;
286;SDS011;127;48.770;9.212;2022-12-18T11:50:28;45.67;;;20.00;;
286;SDS011;127;48.770;9.212;2022-12-18T11:53:01;47.27;;;20.20;;
286;SDS011;127;48.770;9.212;2022-12-18T11:55:33;55.97;;;20.90;;
286;SDS011;127;48.770;9.212;2022-12-18T11:58:14;50.13;;;20.20;;
286;SDS011;127;48.770;9.212;2022-12-18T12:00:54;48.27;;;19.63;;
286;SDS011;127;48.770;9.212;2022-12-18T12:03:37;44.70;;;19.37;;
286;SDS011;127;48.770;9.212;2022-12-18T12:06:17;50.77;;;21.03;;
286;SDS011;127;48.770;9.212;2022-12-18T12:08:55;47.63;;;20.10;;
286;SDS011;127;48.770;9.212;2022-12-18T12:11:35;51.53;;;21.40;;
286;SDS011;127;48.770;9.212;2022-12-18T12:14:22;53.90;;;21.60;;
286;SDS011;127;48.770;9.212;2022-12-18T12:17:02;51.13;;;21.73;;
286;SDS011;127;48.770;9.212;2022-12-18T12:19:41;51.80;;;20.30;;
286;SDS011;127;48.770;9.212;2022-12-18T12:22:18;49.53;;;20.80;;
286;SDS011;127;48.770;9.212;2022-12-18T12:25:08;51.80;;;21.03;;
286;SDS011;127;48.770;9.212;2022-12-18T12:27:49;56.50;;;20.53;;
286;SDS011;127;48.770;9.212;2022-12-18T12:30:30;47.10;;;19.53;;
286;SDS011;127;48.770;9.212;2022-12-18T12:33:08;48.30;;;19.93;;
286;SDS011;127;48.770;9.212;2022-12-18T12:35:48;57.92;;;22.05;;
286;SDS011;127;48.770;9.212;2022-12-18T12:38:25;54.85;;;21.15;;
286;SDS011;127;48.770;9.212;2022-12-18T12:40:58;50.60;;;20.05;;
286;SDS011;127;48.770;9.212;2022-12-18T12:43:32;52.85;;;20.27;;
286;SDS011;127;48.770;9.212;2022-12-18T12:46:07;56.08;;;21.40;;
286;SDS011;127;48.770;9.212;2022-12-18T12:48:40;56.50;;;21.50;;
286;SDS011;127;48.770;9.212;2022-12-18T12:51:13;58.85;;;22.10;;
286;SDS011;127;48.770;9.212;2022-12-18T12:53:45;51.88;;;21.98;;
286;SDS011;127;48.770;9.212;2022-12-18T12:56:14;57.90;;;21.88;;
286;SDS011;127;48.770;9.212;2022-12-18T12:58:52;50.40;;;20.67;;
286;SDS011;127;48.770;9.212;2022-12-18T13:01:32;56.50;;;21.42;;
286;SDS011;127;48.770;9.212;2022-12-18T13:04:12;61.97;;;22.98;;
286;SDS011;127;48.770;9.212;2022-12-18T13:06:46;46.75;;;20.55;;
286;SDS011;127;48.770;9.212;2022-12-18T13:09:21;54.75;;;21.75;;
286;SDS011;127;48.770;9.212;2022-12-18T13:11:50;53.70;;;21.45;;
286;SDS011;127;48.770;9.212;2022-12-18T13:14:31;55.42;;;22.38;;
286;SDS011;127;48.770;9.212;2022-12-18T13:20:11;54.67;;;22.05;;
286;SDS011;127;48.770;9.212;2022-12-18T13:22:42;61.85;;;22.75;;
286;SDS011;127;48.770;9.212;2022-12-18T13:28:01;56.63;;;22.67;;
286;SDS011;127;48.770;9.212;2022-12-18T13:30:45;57.25;;;22.75;;
286;SDS011;127;48.770;9.212;2022-12-18T13:36:13;62.78;;;24.20;;
286;SDS011;127;48.770;9.212;2022-12-18T13:38:44;53.28;;;21.13;;
286;SDS011;127;48.770;9.212;2022-12-18T13:41:23;58.08;;;23.20;;
286;SDS011;127;48.770;9.212;2022-12-18T13:43:54;58.90;;;22.52;;
286;SDS011;127;48.770;9.212;2022-12-18T13:46:26;55.10;;;22.90;;
286;SDS011;127;48.770;9.212;2022-12-18T13:49:00;65.22;;;23.02;;
286;SDS011;127;48.770;9.212;2022-12-18T13:51:32;51.35;;;21.48;;
286;SDS011;127;48.770;9.212;2022-12-18T13:54:02;49.92;;;21.00;;
286;SDS011;127;48.770;9.212;2022-12-18T13:56:43;53.33;;;23.70;;
286;SDS011;127;48.770;9.212;2022-12-18T13:59:14;63.03;;;24.15;;
286;SDS011;127;48.770;9.212;2022-12-18T14:01:46;58.33;;;23.10;;
286;SDS011;127;48.770;9.212;2022-12-18T14:04:28;58.88;;;22.83;;
286;SDS011;127;48.770;9.212;2022-12-18T14:07:03;59.50;;;23.42;;
286;SDS011;127;48.770;9.212;2022-12-18T14:09:35;65.93;;;23.05;;
286;SDS011;127;48.770;9.212;2022-12-18T14:12:11;57.30;;;22.92;;
286;SDS011;127;48.770;9.212;2022-12-18T14:14:56;58.13;;;23.55;;
286;SDS011;127;48.770;9.212;2022-12-18T14:17:26;60.08;;;23.25;;
286;SDS011;127;48.770;9.212;2022-12-18T14:19:57;61.50;;;24.15;;
286;SDS011;127;48.770;9.212;2022-12-18T14:22:26;56.50;;;23.45;;
286;SDS011;127;48.770;9.212;2022-12-18T14:25:06;55.55;;;22.42;;
286;SDS011;127;48.770;9.212;2022-12-18T14:27:42;67.78;;;25.92;;
286;SDS011;127;48.770;9.212;2022-12-18T14:30:25;68.63;;;25.15;;
286;SDS011;127;48.770;9.212;2022-12-18T14:33:05;69.32;;;24.88;;
286;SDS011;127;48.770;9.212;2022-12-18T14:35:40;66.82;;;24.80;;
286;SDS011;127;48.770;9.212;2022-12-18T14:38:19;73.30;;;24.02;;
286;SDS011;127;48.770;9.212;2022-12-18T14:40:53;81.00;;;25.65;;
286;SDS011;127;48.770;9.212;2022-12-18T14:43:32;78.97;;;26.05;;
286;SDS011;127;48.770;9.212;2022-12-18T14:46:02;72.72;;;25.92;;
286;SDS011;127;48.770;9.212;2022-12-18T14:48:34;64.30;;;23.73;;
286;SDS011;127;48.770;9.212;2022-12-18T14:51:14;63.70;;;24.85;;
286;SDS011;127;48.770;9.212;2022-12-18T14:53:44;68.50;;;23.55;;
286;SDS011;127;48.770;9.212;2022-12-18T14:56:16;77.93;;;27.27;;
286;SDS011;127;48.770;9.212;2022-12-18T14:58:47;71.10;;;25.52;;
286;SDS011;127;48.770;9.212;2022-12-18T15:01:22;74.35;;;26.27;;
286;SDS011;127;48.770;9.212;2022-12-18T15:03:53;79.47;;;26.40;;
286;SDS011;127;48.770;9.212;2022-12-18T15:06:29;69.75;;;25.25;;
286;SDS011;127;48.770;9.212;2022-12-18T15:09:00;69.95;;;24.80;;
286;SDS011;127;48.770;9.212;2022-12-18T15:11:35;82.93;;;28.00;;
286;SDS011;127;48.770;9.212;2022-12-18T15:14:21;72.10;;;25.02;;
286;SDS011;127;48.770;9.212;2022-12-18T15:17:00;78.38;;;26.88;;
286;SDS011;127;48.770;9.212;2022-12-18T15:19:33;83.70;;;26.05;;
286;SDS011;127;48.770;9.212;2022-12-18T15:22:15;79.78;;;26.67;;
286;SDS011;127;48.770;9.212;2022-12-18T15:24:47;86.18;;;28.63;;
286;SDS011;127;48.770;9.212;2022-12-18T15:27:26;80.78;;;27.92;;
286;SDS011;127;48.770;9.212;2022-12-18T15:30:02;76.22;;;27.45;;
286;SDS011;127;48.770;9.212;2022-12-18T15:32:51;94.80;;;27.95;;
286;SDS011;127;48.770;9.212;2022-12-18T15:35:21;85.22;;;27.00;;
286;SDS011;127;48.770;9.212;2022-12-18T15:37:53;76.45;;;26.73;;
286;SDS011;127;48.770;9.212;2022-12-18T15:40:23;66.55;;;25.75;;
286;SDS011;127;48.770;9.212;2022-12-18T15:42:52;86.18;;;27.40;;
286;SDS011;127;48.770;9.212;2022-12-18T15:45:47;79.63;;;26.40;;
286;SDS011;127;48.770;9.212;2022-12-18T15:48:18;80.95;;;26.55;;
286;SDS011;127;48.770;9.212;2022-12-18T15:50:49;98.25;;;28.65;;
286;SDS011;127;48.770;9.212;2022-12-18T15:53:23;86.63;;;26.63;;